Time;durP1;ratioP1;P1;durP2;ratioP2;P2;SDS_P1;SDS_P2;PMS_P1;PMS_P2;Temp;Humidity;BMP_temperature;BMP_pressure;BME280_temperature;BME280_humidity;BME280_pressure;Samples;Min_cycle;Max_cycle;Signal;HPM_P1;HPM_P2
2024/01/11 00:00:15;;;;;;;0.30;0.30;;;;;;;;;;5035003;28;20120;-88
2024/01/11 00:02:41;;;;;;;0.63;0.63;;;;;;;;;;5019163;28;20476;-87
2024/01/11 00:05:07;;;;;;;0.40;0.25;;;;;;;;;;5034893;28;20045;-87
2024/01/11 00:07:33;;;;;;;0.88;0.75;;;;;;;;;;5019022;28;20041;-87
2024/01/11 00:09:59;;;;;;;0.47;0.47;;;;;;;;;;5019032;28;20037;-86
2024/01/11 00:12:25;;;;;;;0.10;0.10;;;;;;;;;;5034212;28;20037;-86
2024/01/11 00:14:51;;;;;;;0.60;0.43;;;;;;;;;;5018064;28;20041;-86
2024/01/11 00:17:17;;;;;;;0.50;0.50;;;;;;;;;;5034879;28;20203;-86
2024/01/11 00:19:43;;;;;;;0.80;0.43;;;;;;;;;;5035079;28;20192;-87
2024/01/11 00:22:09;;;;;;;0.95;0.63;;;;;;;;;;5035229;28;20036;-87
2024/01/11 00:24:35;;;;;;;0.15;0.15;;;;;;;;;;5018667;28;20033;-86
2024/01/11 00:27:04;;;;;;;1.23;1.23;;;;;;;;;;5051747;28;20037;-86
2024/01/11 00:29:30;;;;;;;0.70;0.50;;;;;;;;;;5035070;28;20091;-87
2024/01/11 00:31:58;;;;;;;1.02;0.52;;;;;;;;;;5034794;28;20051;-87
2024/01/11 00:34:24;;;;;;;0.25;0.25;;;;;;;;;;5035342;28;20056;-86
2024/01/11 00:36:50;;;;;;;2.67;0.25;;;;;;;;;;5034939;28;20080;-86
2024/01/11 00:39:16;;;;;;;0.10;0.10;;;;;;;;;;5034839;28;20488;-87
2024/01/11 00:41:42;;;;;;;0.30;0.30;;;;;;;;;;5034731;28;20044;-86
2024/01/11 00:44:08;;;;;;;1.65;0.43;;;;;;;;;;5051491;28;20048;-86
2024/01/11 00:46:34;;;;;;;0.40;0.40;;;;;;;;;;5034813;28;20384;-87
2024/01/11 00:49:00;;;;;;;0.30;0.30;;;;;;;;;;5034728;28;20041;-86
2024/01/11 00:51:26;;;;;;;0.43;0.43;;;;;;;;;;5018399;28;20045;-87
2024/01/11 00:53:52;;;;;;;0.50;0.50;;;;;;;;;;5034669;28;20123;-87
2024/01/11 00:56:19;;;;;;;1.48;0.98;;;;;;;;;;5017695;28;20132;-88
2024/01/11 00:58:45;;;;;;;0.98;0.90;;;;;;;;;;5035625;28;20056;-87
2024/01/11 01:01:11;;;;;;;0.47;0.32;;;;;;;;;;5051332;28;20041;-87
2024/01/11 01:03:37;;;;;;;0.20;0.20;;;;;;;;;;5018707;28;20037;-87
2024/01/11 01:06:03;;;;;;;0.55;0.55;;;;;;;;;;5035136;28;20047;-87
2024/01/11 01:08:29;;;;;;;0.65;0.60;;;;;;;;;;5035214;28;20063;-87
2024/01/11 01:10:55;;;;;;;1.20;0.38;;;;;;;;;;5035172;28;20037;-87
2024/01/11 01:13:21;;;;;;;0.20;0.20;;;;;;;;;;5034559;28;20128;-87
2024/01/11 01:15:48;;;;;;;0.20;0.20;;;;;;;;;;5018106;28;20099;-87
2024/01/11 01:18:14;;;;;;;0.20;0.20;;;;;;;;;;5034890;28;20041;-87
2024/01/11 01:20:40;;;;;;;0.57;0.55;;;;;;;;;;5034448;28;20511;-87
2024/01/11 01:23:06;;;;;;;0.60;0.60;;;;;;;;;;5036375;28;20037;-87
2024/01/11 01:25:35;;;;;;;1.75;0.40;;;;;;;;;;5038286;28;20037;-88
2024/01/11 01:28:01;;;;;;;0.22;0.22;;;;;;;;;;5021578;28;20480;-87
2024/01/11 01:30:27;;;;;;;0.20;0.20;;;;;;;;;;5020835;28;20044;-87
2024/01/11 01:32:53;;;;;;;0.20;0.20;;;;;;;;;;5037237;28;20044;-87
2024/01/11 01:35:19;;;;;;;0.30;0.30;;;;;;;;;;5037068;28;20041;-87
2024/01/11 01:37:45;;;;;;;0.20;0.20;;;;;;;;;;5020601;28;20052;-84
2024/01/11 01:40:12;;;;;;;0.10;0.10;;;;;;;;;;5036906;28;20439;-87
2024/01/11 01:42:44;;;;;;;0.10;0.10;;;;;;;;;;5037053;28;20063;-87
2024/01/11 01:45:10;;;;;;;0.10;0.10;;;;;;;;;;5037181;28;20492;-87
2024/01/11 01:47:37;;;;;;;0.10;0.10;;;;;;;;;;5020585;28;20037;-88
2024/01/11 01:50:03;;;;;;;0.10;0.10;;;;;;;;;;5020755;28;20045;-87
2024/01/11 01:52:29;;;;;;;0.10;0.10;;;;;;;;;;5036769;28;20052;-87
2024/01/11 01:54:55;;;;;;;0.30;0.30;;;;;;;;;;5020275;28;20037;-87
2024/01/11 01:57:22;;;;;;;2.42;0.22;;;;;;;;;;5036336;28;20408;-87
2024/01/11 01:59:49;;;;;;;0.22;0.13;;;;;;;;;;5020155;28;20076;-87
2024/01/11 02:02:15;;;;;;;0.10;0.10;;;;;;;;;;5020152;28;20127;-86
2024/01/11 02:04:42;;;;;;;0.17;0.17;;;;;;;;;;5036604;28;20132;-87
2024/01/11 02:07:08;;;;;;;0.22;0.22;;;;;;;;;;5036748;28;20037;-86
2024/01/11 02:09:34;;;;;;;0.10;0.10;;;;;;;;;;5020060;28;20044;-87
2024/01/11 02:12:00;;;;;;;0.10;0.10;;;;;;;;;;5052996;28;20051;-87
2024/01/11 02:14:26;;;;;;;0.10;0.10;;;;;;;;;;5019931;28;20041;-87
2024/01/11 02:16:52;;;;;;;0.20;0.20;;;;;;;;;;5036361;28;20318;-87
2024/01/11 02:19:19;;;;;;;0.10;0.10;;;;;;;;;;5020085;28;20037;-87
2024/01/11 02:21:45;;;;;;;0.20;0.20;;;;;;;;;;5036625;28;20045;-87
2024/01/11 02:24:11;;;;;;;0.10;0.10;;;;;;;;;;5036088;28;20037;-87
2024/01/11 02:26:37;;;;;;;0.17;0.17;;;;;;;;;;5036709;28;20064;-88
2024/01/11 02:29:03;;;;;;;0.22;0.22;;;;;;;;;;5019911;28;20494;-87
2024/01/11 02:31:29;;;;;;;0.65;0.35;;;;;;;;;;5035972;28;20049;-87
2024/01/11 02:33:55;;;;;;;0.10;0.10;;;;;;;;;;5036033;28;20041;-87
2024/01/11 02:36:21;;;;;;;0.20;0.20;;;;;;;;;;5019673;28;20040;-87
2024/01/11 02:38:47;;;;;;;0.47;0.47;;;;;;;;;;5019828;28;20037;-87
2024/01/11 02:41:15;;;;;;;0.10;0.10;;;;;;;;;;5019828;28;20033;-86
2024/01/11 02:43:41;;;;;;;2.35;0.30;;;;;;;;;;5019636;28;20045;-86
2024/01/11 02:46:07;;;;;;;0.10;0.10;;;;;;;;;;5036097;28;20388;-87
2024/01/11 02:48:33;;;;;;;3.75;0.30;;;;;;;;;;5035735;28;20140;-87
2024/01/11 02:50:59;;;;;;;0.47;0.47;;;;;;;;;;5019111;28;20499;-87
2024/01/11 02:53:25;;;;;;;0.20;0.20;;;;;;;;;;5035503;28;20041;-87
2024/01/11 02:55:51;;;;;;;0.10;0.10;;;;;;;;;;5018791;28;20064;-88
2024/01/11 02:58:17;;;;;;;0.15;0.15;;;;;;;;;;5019059;28;20052;-87
2024/01/11 03:00:43;;;;;;;0.40;0.40;;;;;;;;;;5019327;28;20036;-86
2024/01/11 03:03:09;;;;;;;0.30;0.30;;;;;;;;;;5019148;28;20036;-87
2024/01/11 03:05:35;;;;;;;0.25;0.25;;;;;;;;;;5035349;28;20047;-87
2024/01/11 03:08:01;;;;;;;0.10;0.10;;;;;;;;;;5051770;28;20037;-87
2024/01/11 03:10:27;;;;;;;0.28;0.28;;;;;;;;;;5018842;28;20439;-87
2024/01/11 03:12:53;;;;;;;0.10;0.10;;;;;;;;;;5018829;28;20041;-87
2024/01/11 03:15:19;;;;;;;0.10;0.10;;;;;;;;;;5035325;28;20300;-87
2024/01/11 03:17:46;;;;;;;0.70;0.47;;;;;;;;;;5018833;28;20047;-87
2024/01/11 03:20:12;;;;;;;0.55;0.55;;;;;;;;;;5051921;28;20049;-87
2024/01/11 03:22:38;;;;;;;0.28;0.28;;;;;;;;;;5018682;28;20127;-87
2024/01/11 03:25:04;;;;;;;0.10;0.10;;;;;;;;;;5035217;28;20075;-87
2024/01/11 03:27:30;;;;;;;0.47;0.30;;;;;;;;;;5051835;28;20040;-87
2024/01/11 03:29:56;;;;;;;0.10;0.10;;;;;;;;;;5035222;28;20041;-87
2024/01/11 03:32:22;;;;;;;0.45;0.45;;;;;;;;;;5051391;28;20052;-87
2024/01/11 03:34:48;;;;;;;0.10;0.10;;;;;;;;;;5018810;28;20045;-87
2024/01/11 03:37:14;;;;;;;0.20;0.20;;;;;;;;;;5034938;28;20170;-87
2024/01/11 03:39:40;;;;;;;0.10;0.10;;;;;;;;;;5018755;28;20091;-87
2024/01/11 03:42:06;;;;;;;0.10;0.10;;;;;;;;;;5051961;28;20131;-86
2024/01/11 03:44:32;;;;;;;1.08;0.30;;;;;;;;;;5051682;28;20480;-87
2024/01/11 03:46:58;;;;;;;0.20;0.20;;;;;;;;;;5034789;28;20080;-86
2024/01/11 03:49:24;;;;;;;0.10;0.10;;;;;;;;;;5034911;28;20523;-86
2024/01/11 03:51:50;;;;;;;0.10;0.10;;;;;;;;;;5035370;28;20049;-92
2024/01/11 03:54:16;;;;;;;0.10;0.10;;;;;;;;;;5019423;28;20051;-87
2024/01/11 03:56:43;;;;;;;0.22;0.22;;;;;;;;;;5034867;28;20049;-87
2024/01/11 03:59:08;;;;;;;0.10;0.10;;;;;;;;;;5034739;28;20044;-87
2024/01/11 04:01:39;;;;;;;0.10;0.10;;;;;;;;;;5034747;28;20036;-87
2024/01/11 04:04:05;;;;;;;0.30;0.30;;;;;;;;;;5018439;28;20059;-87
2024/01/11 04:06:31;;;;;;;0.10;0.10;;;;;;;;;;5034430;28;20041;-87
2024/01/11 04:08:57;;;;;;;0.10;0.10;;;;;;;;;;5034486;28;20048;-87
2024/01/11 04:11:23;;;;;;;0.10;0.10;;;;;;;;;;5034432;28;20537;-87
2024/01/11 04:13:49;;;;;;;0.10;0.10;;;;;;;;;;5034323;28;20041;-87
2024/01/11 04:16:15;;;;;;;0.10;0.10;;;;;;;;;;5034838;28;20045;-86
2024/01/11 04:18:41;;;;;;;0.10;0.10;;;;;;;;;;5051088;28;20049;-86
2024/01/11 04:21:07;;;;;;;0.10;0.10;;;;;;;;;;5034513;28;20037;-86
2024/01/11 04:23:33;;;;;;;0.17;0.17;;;;;;;;;;5018060;28;20048;-86
2024/01/11 04:25:59;;;;;;;0.73;0.20;;;;;;;;;;5034409;28;20048;-87
2024/01/11 04:28:25;;;;;;;0.63;0.35;;;;;;;;;;5034370;28;20382;-86
2024/01/11 04:30:51;;;;;;;0.10;0.10;;;;;;;;;;5017838;28;20044;-86
2024/01/11 04:33:17;;;;;;;0.15;0.15;;;;;;;;;;5034741;28;20037;-86
2024/01/11 04:35:43;;;;;;;0.10;0.10;;;;;;;;;;5034543;28;20476;-86
2024/01/11 04:38:09;;;;;;;0.55;0.40;;;;;;;;;;5034734;28;20052;-86
2024/01/11 04:40:35;;;;;;;0.10;0.10;;;;;;;;;;5018350;28;20435;-87
2024/01/11 04:43:01;;;;;;;0.28;0.22;;;;;;;;;;5034529;28;20128;-87
2024/01/11 04:45:27;;;;;;;0.10;0.10;;;;;;;;;;5018081;28;20041;-87
2024/01/11 04:47:53;;;;;;;0.10;0.10;;;;;;;;;;5034711;28;20064;-87
2024/01/11 04:50:19;;;;;;;0.75;0.75;;;;;;;;;;5050622;28;20476;-87
2024/01/11 04:52:45;;;;;;;0.10;0.10;;;;;;;;;;5034335;28;20040;-86
2024/01/11 04:55:11;;;;;;;0.10;0.10;;;;;;;;;;5050821;28;20044;-87
2024/01/11 04:57:37;;;;;;;0.10;0.10;;;;;;;;;;5035728;28;20427;-87
2024/01/11 05:00:05;;;;;;;0.22;0.22;;;;;;;;;;5038314;28;20033;-87
2024/01/11 05:02:31;;;;;;;0.10;0.10;;;;;;;;;;5021766;28;20114;-86
2024/01/11 05:04:57;;;;;;;0.20;0.20;;;;;;;;;;5038023;28;20045;-87
2024/01/11 05:07:23;;;;;;;0.10;0.10;;;;;;;;;;5037981;28;20047;-87
2024/01/11 05:09:49;;;;;;;0.20;0.20;;;;;;;;;;5038310;28;20044;-87
2024/01/11 05:12:16;;;;;;;0.77;0.70;;;;;;;;;;5038100;28;20041;-87
2024/01/11 05:14:42;;;;;;;0.10;0.10;;;;;;;;;;5037996;28;20489;-87
2024/01/11 05:17:09;;;;;;;0.10;0.10;;;;;;;;;;5037598;28;20077;-88
2024/01/11 05:19:35;;;;;;;0.47;0.10;;;;;;;;;;5038423;28;20354;-87
2024/01/11 05:22:01;;;;;;;0.10;0.10;;;;;;;;;;5037761;28;20033;-87
2024/01/11 05:24:28;;;;;;;0.10;0.10;;;;;;;;;;5038056;28;20087;-87
2024/01/11 05:26:54;;;;;;;0.10;0.10;;;;;;;;;;5021142;28;20090;-87
2024/01/11 05:29:20;;;;;;;1.00;1.00;;;;;;;;;;5054540;28;20041;-87
2024/01/11 05:31:46;;;;;;;0.10;0.10;;;;;;;;;;5037050;28;20048;-86
2024/01/11 05:34:12;;;;;;;0.20;0.20;;;;;;;;;;5037530;28;20045;-86
2024/01/11 05:36:38;;;;;;;0.20;0.20;;;;;;;;;;5037532;28;20048;-87
2024/01/11 05:39:04;;;;;;;0.17;0.17;;;;;;;;;;5037173;28;20037;-87
2024/01/11 05:41:31;;;;;;;0.10;0.10;;;;;;;;;;5037244;28;20135;-87
2024/01/11 05:43:57;;;;;;;0.20;0.20;;;;;;;;;;5037712;28;20078;-87
2024/01/11 05:46:23;;;;;;;0.43;0.35;;;;;;;;;;5020955;28;20037;-87
2024/01/11 05:48:48;;;;;;;0.10;0.10;;;;;;;;;;5021421;28;20037;-87
2024/01/11 05:51:14;;;;;;;0.17;0.17;;;;;;;;;;5037193;28;20051;-86
2024/01/11 05:53:40;;;;;;;0.10;0.10;;;;;;;;;;5053928;28;20166;-86
2024/01/11 05:56:10;;;;;;;0.10;0.10;;;;;;;;;;5053174;28;20640;-86
2024/01/11 05:58:37;;;;;;;0.10;0.10;;;;;;;;;;5053457;28;20049;-86
2024/01/11 06:01:03;;;;;;;0.10;0.10;;;;;;;;;;5036970;28;20084;-87
2024/01/11 06:03:33;;;;;;;0.10;0.10;;;;;;;;;;5036815;28;20044;-87
2024/01/11 06:05:59;;;;;;;0.30;0.30;;;;;;;;;;5037656;28;20088;-86
2024/01/11 06:08:26;;;;;;;0.50;0.50;;;;;;;;;;5052825;28;20049;-86
2024/01/11 06:10:52;;;;;;;0.10;0.10;;;;;;;;;;5036454;28;20516;-88
2024/01/11 06:13:18;;;;;;;0.10;0.10;;;;;;;;;;5036600;28;20090;-87
2024/01/11 06:15:44;;;;;;;0.17;0.17;;;;;;;;;;5053523;28;20045;-87
2024/01/11 06:18:10;;;;;;;0.20;0.20;;;;;;;;;;5036433;28;20099;-86
2024/01/11 06:20:36;;;;;;;0.10;0.10;;;;;;;;;;5053017;28;20151;-86
2024/01/11 06:23:03;;;;;;;0.20;0.20;;;;;;;;;;5036777;28;20373;-86
2024/01/11 06:25:30;;;;;;;0.10;0.10;;;;;;;;;;5036694;28;20070;-86
2024/01/11 06:27:56;;;;;;;0.20;0.20;;;;;;;;;;5019927;28;20052;-86
2024/01/11 06:30:22;;;;;;;0.20;0.20;;;;;;;;;;5053223;28;20044;-87
2024/01/11 06:32:48;;;;;;;1.77;0.17;;;;;;;;;;5052818;28;20443;-87
2024/01/11 06:35:14;;;;;;;0.10;0.10;;;;;;;;;;5036167;28;20041;-86
2024/01/11 06:37:40;;;;;;;0.10;0.10;;;;;;;;;;5036290;28;20086;-86
2024/01/11 06:40:08;;;;;;;0.10;0.10;;;;;;;;;;5052722;28;20041;-87
2024/01/11 06:42:34;;;;;;;0.65;0.30;;;;;;;;;;5019871;28;20075;-87
2024/01/11 06:45:01;;;;;;;0.10;0.10;;;;;;;;;;5019948;28;20043;-87
2024/01/11 06:47:27;;;;;;;0.10;0.10;;;;;;;;;;5019891;28;20052;-87
2024/01/11 06:49:53;;;;;;;0.10;0.10;;;;;;;;;;5019897;28;20049;-87
2024/01/11 06:52:19;;;;;;;0.10;0.10;;;;;;;;;;5035728;28;20133;-87
2024/01/11 06:54:45;;;;;;;0.10;0.10;;;;;;;;;;5019536;28;20037;-87
2024/01/11 06:57:11;;;;;;;0.10;0.10;;;;;;;;;;5035655;28;20064;-87
2024/01/11 06:59:37;;;;;;;0.10;0.10;;;;;;;;;;5036650;28;20094;-85
2024/01/11 07:02:04;;;;;;;0.20;0.20;;;;;;;;;;5036060;28;20040;-85
2024/01/11 07:04:30;;;;;;;0.10;0.10;;;;;;;;;;5052275;28;20511;-84
2024/01/11 07:06:56;;;;;;;0.10;0.10;;;;;;;;;;5035868;28;20484;-86
2024/01/11 07:09:22;;;;;;;0.10;0.10;;;;;;;;;;5019323;28;20049;-84
2024/01/11 07:11:48;;;;;;;0.10;0.10;;;;;;;;;;5051667;28;20056;-84
2024/01/11 07:14:14;;;;;;;0.10;0.10;;;;;;;;;;5019211;28;20384;-84
2024/01/11 07:16:40;;;;;;;0.50;0.50;;;;;;;;;;5018811;28;20037;-84
2024/01/11 07:19:06;;;;;;;2.90;0.77;;;;;;;;;;5035152;28;20091;-84
2024/01/11 07:21:32;;;;;;;0.50;0.50;;;;;;;;;;5034811;28;20115;-83
2024/01/11 07:23:58;;;;;;;0.45;0.45;;;;;;;;;;5035017;28;20041;-84
2024/01/11 07:26:24;;;;;;;0.10;0.10;;;;;;;;;;5034978;28;20045;-84
2024/01/11 07:28:51;;;;;;;0.20;0.20;;;;;;;;;;5051877;28;20511;-84
2024/01/11 07:31:17;;;;;;;0.40;0.40;;;;;;;;;;5034732;28;20041;-84
2024/01/11 07:33:43;;;;;;;0.10;0.10;;;;;;;;;;5034708;28;20041;-83
2024/01/11 07:36:09;;;;;;;0.20;0.20;;;;;;;;;;5034810;28;20052;-84
2024/01/11 07:38:35;;;;;;;0.10;0.10;;;;;;;;;;5034800;28;20033;-86
2024/01/11 07:41:01;;;;;;;0.10;0.10;;;;;;;;;;5034351;28;20048;-85
2024/01/11 07:43:28;;;;;;;0.28;0.28;;;;;;;;;;5034930;28;20041;-85
2024/01/11 07:45:56;;;;;;;0.38;0.38;;;;;;;;;;5034656;28;20036;-84
2024/01/11 07:48:22;;;;;;;0.10;0.10;;;;;;;;;;5034834;28;20120;-86
2024/01/11 07:50:49;;;;;;;0.10;0.10;;;;;;;;;;5018210;28;20045;-85
2024/01/11 07:53:15;;;;;;;0.20;0.20;;;;;;;;;;5017957;28;20059;-84
2024/01/11 07:55:41;;;;;;;0.20;0.20;;;;;;;;;;5017748;28;20064;-85
2024/01/11 07:58:07;;;;;;;0.10;0.10;;;;;;;;;;5050972;28;20107;-85
2024/01/11 08:00:33;;;;;;;0.10;0.10;;;;;;;;;;5034408;28;20101;-86
2024/01/11 08:02:59;;;;;;;0.10;0.10;;;;;;;;;;5034859;28;20076;-86
2024/01/11 08:05:26;;;;;;;0.10;0.10;;;;;;;;;;5051659;28;20431;-87
2024/01/11 08:07:52;;;;;;;0.10;0.10;;;;;;;;;;5034493;28;20049;-86
2024/01/11 08:10:18;;;;;;;0.10;0.10;;;;;;;;;;5011660;28;20045;-86
2024/01/11 08:12:45;;;;;;;0.10;0.10;;;;;;;;;;5017648;28;20084;-86
2024/01/11 08:15:12;;;;;;;0.10;0.10;;;;;;;;;;5034457;28;20190;-90
2024/01/11 08:17:40;;;;;;;0.10;0.10;;;;;;;;;;5014060;28;20106;-84
2024/01/11 08:20:08;;;;;;;0.10;0.10;;;;;;;;;;5018326;28;20036;-90
2024/01/11 08:22:36;;;;;;;0.10;0.10;;;;;;;;;;5018538;28;20041;-89
2024/01/11 08:25:04;;;;;;;1.63;0.43;;;;;;;;;;5007429;28;20044;-86
2024/01/11 08:27:31;;;;;;;0.15;0.15;;;;;;;;;;4996521;28;20057;-87
2024/01/11 08:29:57;;;;;;;0.10;0.10;;;;;;;;;;5011274;28;20408;-86
2024/01/11 08:32:23;;;;;;;0.10;0.10;;;;;;;;;;5031546;28;20041;-85
2024/01/11 08:34:49;;;;;;;0.22;0.22;;;;;;;;;;5018705;28;20051;-89
2024/01/11 08:37:15;;;;;;;0.20;0.20;;;;;;;;;;5019108;28;20070;-88
2024/01/11 08:39:41;;;;;;;0.10;0.10;;;;;;;;;;5002303;28;20037;-88
2024/01/11 08:42:08;;;;;;;0.28;0.28;;;;;;;;;;5018715;28;20045;-88
2024/01/11 08:44:34;;;;;;;0.10;0.10;;;;;;;;;;5002060;28;20520;-86
2024/01/11 08:47:02;;;;;;;0.10;0.10;;;;;;;;;;5018096;28;20037;-87
2024/01/11 08:49:28;;;;;;;0.10;0.10;;;;;;;;;;5034352;28;20088;-86
2024/01/11 08:51:54;;;;;;;0.65;0.65;;;;;;;;;;5034368;28;20048;-86
2024/01/11 08:54:20;;;;;;;0.10;0.10;;;;;;;;;;5034204;28;20045;-86
2024/01/11 08:56:47;;;;;;;0.10;0.10;;;;;;;;;;5017484;28;20119;-87
2024/01/11 08:59:13;;;;;;;0.10;0.10;;;;;;;;;;5017677;28;20052;-87
2024/01/11 09:01:42;;;;;;;0.40;0.40;;;;;;;;;;5035395;28;20164;-87
2024/01/11 09:04:09;;;;;;;0.10;0.10;;;;;;;;;;5017543;28;20526;-87
2024/01/11 09:06:35;;;;;;;0.10;0.10;;;;;;;;;;5017714;28;20064;-87
2024/01/11 09:09:01;;;;;;;0.30;0.30;;;;;;;;;;5017316;28;20480;-87
2024/01/11 09:11:27;;;;;;;0.10;0.10;;;;;;;;;;5017389;28;20042;-87
2024/01/11 09:13:53;;;;;;;0.10;0.10;;;;;;;;;;5033880;28;20546;-87
2024/01/11 09:16:19;;;;;;;0.10;0.10;;;;;;;;;;5017471;28;20037;-88
2024/01/11 09:18:45;;;;;;;0.10;0.10;;;;;;;;;;4996387;28;20057;-88
2024/01/11 09:21:12;;;;;;;0.20;0.20;;;;;;;;;;5020718;28;20069;-86
2024/01/11 09:23:38;;;;;;;0.10;0.10;;;;;;;;;;5016940;28;20037;-88
2024/01/11 09:26:04;;;;;;;0.10;0.10;;;;;;;;;;4997832;28;20042;-89
2024/01/11 09:28:30;;;;;;;0.10;0.10;;;;;;;;;;4999249;28;20069;-89
2024/01/11 09:30:59;;;;;;;0.10;0.10;;;;;;;;;;5004295;28;20033;-87
2024/01/11 09:33:25;;;;;;;0.10;0.10;;;;;;;;;;5012096;28;20032;-87
2024/01/11 09:35:51;;;;;;;0.10;0.10;;;;;;;;;;4997837;28;20046;-87
2024/01/11 09:38:18;;;;;;;0.10;0.10;;;;;;;;;;4996178;28;20056;-86
2024/01/11 09:40:44;;;;;;;0.38;0.30;;;;;;;;;;5000806;28;20038;-88
2024/01/11 09:43:10;;;;;;;0.57;0.32;;;;;;;;;;4981326;28;20084;-87
2024/01/11 09:45:36;;;;;;;0.10;0.10;;;;;;;;;;5013621;28;20088;-89
2024/01/11 09:48:02;;;;;;;0.10;0.10;;;;;;;;;;4997465;28;20050;-87
2024/01/11 09:50:28;;;;;;;0.15;0.15;;;;;;;;;;4981999;28;20444;-91
2024/01/11 09:52:54;;;;;;;0.10;0.10;;;;;;;;;;4999002;28;20465;-93
2024/01/11 09:55:20;;;;;;;0.10;0.10;;;;;;;;;;4999783;28;20042;-87
2024/01/11 09:57:48;;;;;;;0.10;0.10;;;;;;;;;;4997194;28;20049;-86
2024/01/11 10:00:14;;;;;;;0.10;0.10;;;;;;;;;;4993669;28;20041;-86
2024/01/11 10:02:40;;;;;;;0.73;0.73;;;;;;;;;;5016608;28;20078;-86
2024/01/11 10:05:06;;;;;;;0.10;0.10;;;;;;;;;;5016428;28;20133;-86
2024/01/11 10:07:32;;;;;;;0.10;0.10;;;;;;;;;;5000500;28;20037;-87
2024/01/11 10:09:59;;;;;;;0.60;0.40;;;;;;;;;;5000276;28;20085;-87
2024/01/11 10:12:25;;;;;;;0.20;0.20;;;;;;;;;;5000219;28;20052;-87
2024/01/11 10:14:51;;;;;;;0.10;0.10;;;;;;;;;;5016780;28;20046;-87
2024/01/11 10:17:18;;;;;;;0.28;0.28;;;;;;;;;;5016382;28;20072;-91
2024/01/11 10:19:44;;;;;;;0.10;0.10;;;;;;;;;;5016527;28;20029;-88
2024/01/11 10:22:12;;;;;;;0.10;0.10;;;;;;;;;;5016519;28;20538;-87
2024/01/11 10:24:39;;;;;;;0.10;0.10;;;;;;;;;;5016269;28;20068;-88
2024/01/11 10:27:05;;;;;;;0.10;0.10;;;;;;;;;;5000150;28;20484;-88
2024/01/11 10:29:32;;;;;;;0.20;0.20;;;;;;;;;;5016154;28;20045;-88
2024/01/11 10:31:58;;;;;;;0.10;0.10;;;;;;;;;;5000729;28;20053;-88
2024/01/11 10:34:24;;;;;;;0.10;0.10;;;;;;;;;;5028055;28;20074;-88
2024/01/11 10:36:50;;;;;;;0.10;0.10;;;;;;;;;;4998743;28;20049;-91
2024/01/11 10:39:19;;;;;;;0.10;0.10;;;;;;;;;;4992971;28;20041;-94
2024/01/11 10:41:48;;;;;;;0.17;0.17;;;;;;;;;;5023190;28;20235;-94
2024/01/11 10:44:18;;;;;;;0.10;0.10;;;;;;;;;;5016897;28;20084;-92
2024/01/11 10:46:44;;;;;;;0.10;0.10;;;;;;;;;;5057475;23;20049;-95
2024/01/11 10:49:10;;;;;;;0.10;0.10;;;;;;;;;;5016488;28;20033;-94
2024/01/11 10:51:36;;;;;;;0.17;0.17;;;;;;;;;;4999764;28;20042;-93
2024/01/11 10:54:02;;;;;;;0.38;0.38;;;;;;;;;;5002154;28;20485;-92
2024/01/11 10:56:28;;;;;;;0.52;0.52;;;;;;;;;;4996664;28;20213;-91
2024/01/11 10:58:54;;;;;;;0.43;0.22;;;;;;;;;;4997671;28;20557;-94
2024/01/11 11:01:20;;;;;;;0.10;0.10;;;;;;;;;;5012422;28;20097;-93
2024/01/11 11:03:47;;;;;;;0.10;0.10;;;;;;;;;;5000887;28;20095;-93
2024/01/11 11:06:14;;;;;;;0.10;0.10;;;;;;;;;;5005691;28;20038;-89
2024/01/11 11:08:40;;;;;;;0.10;0.10;;;;;;;;;;5011140;28;20045;-95
2024/01/11 11:11:10;;;;;;;0.10;0.10;;;;;;;;;;4988557;28;20132;-91
2024/01/11 11:13:36;;;;;;;0.10;0.10;;;;;;;;;;5013465;28;20042;-90
2024/01/11 11:16:03;;;;;;;0.10;0.10;;;;;;;;;;4980984;28;20132;-89
2024/01/11 11:18:30;;;;;;;0.10;0.10;;;;;;;;;;4980157;28;20041;-89
2024/01/11 11:20:56;;;;;;;0.20;0.20;;;;;;;;;;4979924;28;20045;-90
2024/01/11 11:23:23;;;;;;;0.20;0.20;;;;;;;;;;4979578;28;20085;-90
2024/01/11 11:25:49;;;;;;;0.10;0.10;;;;;;;;;;4995825;28;20494;-89
2024/01/11 11:28:18;;;;;;;0.10;0.10;;;;;;;;;;4979766;28;20042;-88
2024/01/11 11:30:45;;;;;;;0.10;0.10;;;;;;;;;;4988745;28;20045;-94
2024/01/11 11:33:17;;;;;;;0.10;0.10;;;;;;;;;;4982652;28;20046;-90
2024/01/11 11:35:43;;;;;;;0.17;0.17;;;;;;;;;;4981947;28;20046;-91
2024/01/11 11:38:17;;;;;;;0.10;0.10;;;;;;;;;;4996043;28;20046;-91
2024/01/11 11:40:45;;;;;;;0.10;0.10;;;;;;;;;;4979532;28;20052;-90
2024/01/11 11:43:11;;;;;;;0.10;0.10;;;;;;;;;;4980482;28;20095;-90
2024/01/11 11:45:37;;;;;;;0.10;0.10;;;;;;;;;;4979882;28;20058;-90
2024/01/11 11:48:24;;;;;;;0.20;0.20;;;;;;;;;;4980257;28;20041;-91
2024/01/11 11:51:01;;;;;;;0.10;0.10;;;;;;;;;;4989415;28;20049;-90
2024/01/11 11:53:29;;;;;;;0.10;0.10;;;;;;;;;;4983457;28;20458;-90
2024/01/11 11:55:55;;;;;;;0.10;0.10;;;;;;;;;;4980928;28;20041;-91
2024/01/11 11:58:21;;;;;;;0.10;0.10;;;;;;;;;;4996743;28;20045;-90
2024/01/11 12:00:47;;;;;;;0.10;0.10;;;;;;;;;;4996455;28;20038;-91
2024/01/11 12:03:13;;;;;;;0.10;0.10;;;;;;;;;;4997453;28;20064;-90
2024/01/11 12:05:39;;;;;;;0.10;0.10;;;;;;;;;;4981012;28;20046;-91
2024/01/11 12:08:05;;;;;;;0.10;0.10;;;;;;;;;;4979845;28;20066;-90
2024/01/11 12:10:31;;;;;;;0.10;0.10;;;;;;;;;;4996825;28;20041;-90
2024/01/11 12:12:57;;;;;;;0.10;0.10;;;;;;;;;;4997896;28;20080;-90
2024/01/11 12:15:24;;;;;;;0.35;0.28;;;;;;;;;;4983389;28;20076;-91
2024/01/11 12:17:50;;;;;;;0.10;0.10;;;;;;;;;;5015067;28;20052;-91
2024/01/11 12:20:19;;;;;;;0.10;0.10;;;;;;;;;;5000001;28;20133;-90
2024/01/11 12:22:45;;;;;;;0.10;0.10;;;;;;;;;;4984158;28;20049;-91
2024/01/11 12:25:12;;;;;;;0.35;0.35;;;;;;;;;;5000885;28;20408;-90
2024/01/11 12:27:38;;;;;;;0.10;0.10;;;;;;;;;;5002337;28;20034;-91
2024/01/11 12:30:04;;;;;;;0.10;0.10;;;;;;;;;;5004666;28;20481;-90
2024/01/11 12:32:30;;;;;;;0.10;0.10;;;;;;;;;;5015150;28;20045;-90
2024/01/11 12:34:56;;;;;;;0.20;0.20;;;;;;;;;;5017738;28;20042;-89
2024/01/11 12:37:22;;;;;;;0.22;0.22;;;;;;;;;;5001590;28;20060;-89
2024/01/11 12:39:48;;;;;;;0.10;0.10;;;;;;;;;;5016809;28;20042;-89
2024/01/11 12:42:14;;;;;;;0.20;0.20;;;;;;;;;;5015446;28;20122;-91
2024/01/11 12:44:42;;;;;;;0.30;0.30;;;;;;;;;;5013329;28;20049;-91
2024/01/11 12:47:08;;;;;;;0.10;0.10;;;;;;;;;;4981964;28;20053;-91
2024/01/11 12:49:34;;;;;;;0.10;0.10;;;;;;;;;;4979673;28;20042;-90
2024/01/11 12:52:00;;;;;;;0.10;0.10;;;;;;;;;;4995423;28;20485;-92
2024/01/11 12:54:27;;;;;;;0.20;0.20;;;;;;;;;;4979150;28;20034;-91
2024/01/11 12:56:53;;;;;;;0.50;0.50;;;;;;;;;;4979121;28;20050;-91
2024/01/11 12:59:19;;;;;;;0.10;0.10;;;;;;;;;;4979175;28;20130;-92
2024/01/11 13:01:45;;;;;;;0.10;0.10;;;;;;;;;;4979068;28;20099;-90
2024/01/11 13:04:12;;;;;;;0.10;0.10;;;;;;;;;;4995079;28;20129;-92
2024/01/11 13:06:38;;;;;;;0.10;0.10;;;;;;;;;;4978951;28;20095;-90
2024/01/11 13:09:04;;;;;;;0.10;0.10;;;;;;;;;;5011533;28;20057;-91
2024/01/11 13:11:31;;;;;;;0.10;0.10;;;;;;;;;;4995467;28;20147;-92
2024/01/11 13:13:59;;;;;;;0.10;0.10;;;;;;;;;;4995358;28;20046;-91
2024/01/11 13:16:25;;;;;;;0.10;0.10;;;;;;;;;;4978782;28;20108;-92
2024/01/11 13:18:54;;;;;;;0.10;0.10;;;;;;;;;;4997009;28;20129;-92
2024/01/11 13:21:20;;;;;;;0.10;0.10;;;;;;;;;;4982853;28;20061;-92
2024/01/11 13:23:46;;;;;;;0.65;0.30;;;;;;;;;;4982598;28;20038;-92
2024/01/11 13:26:12;;;;;;;0.22;0.22;;;;;;;;;;4998607;28;20184;-92
2024/01/11 13:28:38;;;;;;;0.10;0.10;;;;;;;;;;4998847;28;20215;-92
2024/01/11 13:31:04;;;;;;;0.10;0.10;;;;;;;;;;5014554;28;20042;-91
2024/01/11 13:33:30;;;;;;;0.10;0.10;;;;;;;;;;4998594;28;20048;-91
2024/01/11 13:35:56;;;;;;;0.10;0.10;;;;;;;;;;4998357;28;20049;-91
2024/01/11 13:38:22;;;;;;;0.10;0.10;;;;;;;;;;4998018;28;20549;-91
2024/01/11 13:40:48;;;;;;;0.17;0.17;;;;;;;;;;4998211;28;20034;-90
2024/01/11 13:43:14;;;;;;;0.10;0.10;;;;;;;;;;4981913;28;20042;-91
2024/01/11 13:45:41;;;;;;;0.10;0.10;;;;;;;;;;5014181;28;20541;-90
2024/01/11 13:48:07;;;;;;;0.10;0.10;;;;;;;;;;4998410;28;20402;-91
2024/01/11 13:50:33;;;;;;;0.10;0.10;;;;;;;;;;4981601;28;20053;-91
2024/01/11 13:52:59;;;;;;;0.10;0.10;;;;;;;;;;4981835;28;20041;-92
2024/01/11 13:55:25;;;;;;;0.10;0.10;;;;;;;;;;4998133;28;20049;-92
2024/01/11 13:57:52;;;;;;;0.10;0.10;;;;;;;;;;4981885;28;20042;-92
2024/01/11 14:00:21;;;;;;;0.10;0.10;;;;;;;;;;5001741;28;20038;-96
2024/01/11 14:02:47;;;;;;;0.10;0.10;;;;;;;;;;5015664;28;20044;-93
2024/01/11 14:05:14;;;;;;;0.10;0.10;;;;;;;;;;4983471;28;20034;-89
2024/01/11 14:07:40;;;;;;;0.10;0.10;;;;;;;;;;4981943;28;20064;-94
2024/01/11 14:10:08;;;;;;;0.10;0.10;;;;;;;;;;4998653;28;20071;-94
2024/01/11 14:12:34;;;;;;;0.20;0.20;;;;;;;;;;4984584;28;20068;-96
2024/01/11 14:15:00;;;;;;;0.10;0.10;;;;;;;;;;4982288;28;20118;-94
2024/01/11 14:17:27;;;;;;;0.10;0.10;;;;;;;;;;4998837;28;20124;-96
2024/01/11 14:19:53;;;;;;;0.20;0.20;;;;;;;;;;4997679;28;20077;-94
2024/01/11 14:22:19;;;;;;;0.10;0.10;;;;;;;;;;4998015;28;20088;-95
2024/01/11 14:24:45;;;;;;;0.10;0.10;;;;;;;;;;4995796;28;20037;-93
2024/01/11 14:27:11;;;;;;;0.10;0.10;;;;;;;;;;5017109;28;20041;-96
2024/01/11 14:29:37;;;;;;;0.10;0.10;;;;;;;;;;5000623;28;20073;-94
2024/01/11 14:32:03;;;;;;;0.10;0.10;;;;;;;;;;5016653;28;20045;-92
2024/01/11 14:34:29;;;;;;;0.10;0.10;;;;;;;;;;5000709;28;20132;-91
2024/01/11 14:36:59;;;;;;;0.30;0.30;;;;;;;;;;5017558;28;20073;-93